Time;durP1;ratioP1;P1;durP2;ratioP2;P2;SDS_P1;SDS_P2;PMS_P1;PMS_P2;Temp;Humidity;BMP_temperature;BMP_pressure;BME280_temperature;BME280_humidity;BME280_pressure;Samples;Min_cycle;Max_cycle;Signal;HPM_P1;HPM_P2
2022/09/27 00:00:38;;;;;;;35.63;27.58;;;;;;;11.39;81.05;99049.72;1686515;84;25631;-70
2022/09/27 00:03:05;;;;;;;36.05;26.95;;;;;;;11.38;80.93;99045.45;1684485;84;25636;-70
2022/09/27 00:05:32;;;;;;;39.88;30.15;;;;;;;11.38;80.94;99046.81;1689404;84;27396;-70
2022/09/27 00:07:58;;;;;;;39.55;28.00;;;;;;;11.36;81.05;99043.09;1683794;84;25633;-70
2022/09/27 00:10:25;;;;;;;45.40;31.15;;;;;;;11.36;81.21;99043.67;1686856;84;25393;-69
2022/09/27 00:12:51;;;;;;;42.00;29.80;;;;;;;11.34;81.29;99040.49;1684181;84;25658;-69
2022/09/27 00:15:19;;;;;;;41.30;30.97;;;;;;;11.33;81.46;99040.29;1682127;84;25307;-69
2022/09/27 00:17:45;;;;;;;43.10;30.68;;;;;;;11.33;81.29;99037.58;1680452;84;27417;-69
2022/09/27 00:20:11;;;;;;;43.78;30.95;;;;;;;11.32;81.25;99036.00;1678080;84;27317;-69
2022/09/27 00:22:37;;;;;;;44.42;32.30;;;;;;;11.32;81.54;99035.45;1683774;84;25261;-69
2022/09/27 00:25:06;;;;;;;41.33;31.17;;;;;;;11.31;81.63;99032.51;1690973;84;25625;-69
2022/09/27 00:27:32;;;;;;;42.05;29.42;;;;;;;11.29;81.69;99032.07;1689427;84;25654;-67
2022/09/27 00:29:58;;;;;;;45.83;31.42;;;;;;;11.28;81.59;99026.42;1690314;84;27261;-67
2022/09/27 00:32:24;;;;;;;44.42;32.93;;;;;;;11.30;81.66;99032.27;1688161;84;33289;-67
2022/09/27 00:34:50;;;;;;;42.53;30.00;;;;;;;11.31;81.78;99031.73;1677970;84;25671;-67
2022/09/27 00:37:17;;;;;;;49.58;32.15;;;;;;;11.33;81.73;99032.17;1689117;83;26295;-67
2022/09/27 00:39:43;;;;;;;45.35;30.65;;;;;;;11.34;81.86;99029.66;1687381;84;25559;-67
2022/09/27 00:42:12;;;;;;;43.08;32.08;;;;;;;11.33;82.01;99022.69;1679610;84;27418;-67
2022/09/27 00:44:43;;;;;;;44.03;30.02;;;;;;;11.32;82.08;99022.46;1689020;84;25408;-67
2022/09/27 00:47:34;;;;;;;45.28;32.05;;;;;;;11.32;81.93;99015.69;1682790;84;25435;-69
2022/09/27 00:50:31;;;;;;;42.78;31.25;;;;;;;11.32;82.20;99017.05;1676256;84;25740;-67
2022/09/27 00:53:06;;;;;;;40.08;29.87;;;;;;;11.29;82.36;99008.25;1690349;84;25606;-67
2022/09/27 00:55:37;;;;;;;46.37;32.75;;;;;;;11.26;82.63;99011.67;1688770;84;29575;-69
2022/09/27 00:58:05;;;;;;;41.73;30.52;;;;;;;11.22;82.78;99004.81;1681518;84;25754;-67
2022/09/27 01:00:32;;;;;;;40.88;29.23;;;;;;;11.20;82.84;99004.34;1677639;84;25587;-67
2022/09/27 01:03:00;;;;;;;45.30;31.48;;;;;;;11.20;83.07;99002.45;1683684;84;25614;-67
2022/09/27 01:05:28;;;;;;;43.40;31.37;;;;;;;11.20;83.40;99001.64;1688023;84;25404;-68
2022/09/27 01:07:59;;;;;;;45.65;30.55;;;;;;;11.17;83.52;99005.84;1689745;84;27972;-67
2022/09/27 01:10:31;;;;;;;47.17;31.33;;;;;;;11.17;83.90;98999.07;1674809;84;27136;-69
2022/09/27 01:13:08;;;;;;;45.20;30.45;;;;;;;11.20;83.90;98999.73;1686627;84;25582;-68
2022/09/27 01:15:58;;;;;;;41.28;30.48;;;;;;;11.24;84.03;99001.73;1684836;84;26508;-67
2022/09/27 01:18:39;;;;;;;45.43;31.75;;;;;;;11.25;83.96;99000.61;1680905;84;25572;-68
2022/09/27 01:21:17;;;;;;;44.55;31.07;;;;;;;11.28;84.23;98989.10;1661589;85;27527;-68
2022/09/27 01:23:54;;;;;;;44.98;30.72;;;;;;;11.28;84.42;98985.05;1670011;85;25527;-69
2022/09/27 01:27:03;;;;;;;46.73;31.93;;;;;;;11.27;84.46;98978.85;1668981;85;25315;-69
2022/09/27 01:29:55;;;;;;;41.25;31.25;;;;;;;11.27;84.39;98973.44;1666270;85;25602;-67
2022/09/27 01:32:30;;;;;;;47.55;31.17;;;;;;;11.29;84.52;98982.00;1663163;85;25441;-69
2022/09/27 01:35:10;;;;;;;45.98;30.77;;;;;;;11.29;84.61;98979.28;1661506;85;29575;-69
2022/09/27 01:38:14;;;;;;;41.75;29.92;;;;;;;11.31;84.68;98978.38;1654423;85;25480;-68
2022/09/27 01:41:02;;;;;;;45.30;31.85;;;;;;;11.32;84.62;98975.09;1655947;86;25685;-67
2022/09/27 01:43:39;;;;;;;43.15;31.20;;;;;;;11.33;84.83;98971.26;1658447;85;25581;-69
2022/09/27 01:46:13;;;;;;;44.18;29.95;;;;;;;11.33;84.78;98968.55;1657800;85;25687;-67
2022/09/27 01:48:44;;;;;;;44.85;30.62;;;;;;;11.33;84.85;98973.97;1658539;85;27344;-67
2022/09/27 01:51:16;;;;;;;46.65;31.33;;;;;;;11.35;85.01;98974.40;1658421;85;25725;-67
2022/09/27 01:53:47;;;;;;;46.18;31.73;;;;;;;11.35;85.16;98979.81;1657073;85;25556;-68
2022/09/27 01:56:21;;;;;;;50.20;33.15;;;;;;;11.34;85.43;98983.09;1658541;85;25548;-68
2022/09/27 01:59:10;;;;;;;45.40;32.98;;;;;;;11.33;85.46;98982.09;1654531;85;25512;-68
2022/09/27 02:01:38;;;;;;;48.60;31.62;;;;;;;11.33;85.52;98982.09;1645074;86;29559;-67
2022/09/27 02:04:09;;;;;;;49.45;33.33;;;;;;;11.34;85.57;98970.11;1639805;86;25813;-68
2022/09/27 02:06:40;;;;;;;50.23;32.78;;;;;;;11.35;85.69;98981.17;1650698;85;25721;-67
2022/09/27 02:09:15;;;;;;;49.40;32.58;;;;;;;11.36;85.82;98978.12;1653669;85;25719;-68
2022/09/27 02:11:46;;;;;;;56.37;33.88;;;;;;;11.38;85.84;98981.27;1658576;84;25703;-68
2022/09/27 02:14:35;;;;;;;51.37;33.98;;;;;;;11.40;86.00;98978.21;1688605;84;29553;-67
2022/09/27 02:17:41;;;;;;;49.70;32.10;;;;;;;11.39;86.19;98972.56;1688623;84;25817;-69
2022/09/27 02:20:22;;;;;;;52.43;33.00;;;;;;;11.38;86.26;98969.08;1692163;84;25616;-67
2022/09/27 02:23:05;;;;;;;50.67;32.67;;;;;;;11.39;86.44;98965.25;1687423;84;25539;-69
2022/09/27 02:25:52;;;;;;;49.98;32.38;;;;;;;11.42;86.47;98958.91;1691569;84;25469;-67
2022/09/27 02:28:40;;;;;;;56.85;35.08;;;;;;;11.44;86.71;98958.00;1691937;84;26598;-67
2022/09/27 02:31:07;;;;;;;54.50;34.83;;;;;;;11.45;86.69;98959.01;1694858;84;25613;-69
2022/09/27 02:33:39;;;;;;;56.85;35.23;;;;;;;11.47;86.70;98951.31;1694654;84;25448;-69
2022/09/27 02:36:06;;;;;;;51.70;32.50;;;;;;;11.48;86.78;98948.84;1692952;84;25785;-69
2022/09/27 02:38:32;;;;;;;60.05;34.48;;;;;;;11.53;86.75;98947.81;1694683;84;25632;-69
2022/09/27 02:40:59;;;;;;;58.90;34.45;;;;;;;11.53;86.73;98945.09;1694639;83;27428;-69
2022/09/27 02:43:30;;;;;;;69.30;33.90;;;;;;;11.54;86.62;98950.72;1694346;84;25438;-69
2022/09/27 02:46:07;;;;;;;62.80;33.78;;;;;;;11.53;86.73;98949.16;1691764;84;25398;-67
2022/09/27 02:48:56;;;;;;;54.18;34.05;;;;;;;11.50;86.59;98946.56;1691364;84;25619;-68
2022/09/27 02:51:58;;;;;;;;;;;;;;;11.51;86.66;98948.16;1693918;84;25448;-67
2022/09/27 02:54:47;;;;;;;55.35;32.83;;;;;;;11.50;86.64;98951.20;1693382;84;27412;-67
2022/09/27 02:57:54;;;;;;;63.20;32.97;;;;;;;11.49;86.79;98952.33;1688914;84;25589;-67
2022/09/27 03:00:31;;;;;;;55.75;32.70;;;;;;;11.49;87.01;98958.55;1688554;84;25720;-67
2022/09/27 03:03:21;;;;;;;61.00;35.48;;;;;;;11.44;87.12;98949.33;1690533;83;25711;-67
2022/09/27 03:05:53;;;;;;;;;;;;;;;11.43;87.24;98950.45;1694116;84;25658;-67
2022/09/27 03:08:20;;;;;;;64.53;34.50;;;;;;;11.45;87.65;98941.41;1682050;84;27541;-68
2022/09/27 03:10:47;;;;;;;60.85;35.00;;;;;;;11.44;87.69;98942.56;1639403;84;26393;-68
2022/09/27 03:13:15;;;;;;;59.67;33.40;;;;;;;11.46;87.67;98937.58;1690679;84;25572;-67
2022/09/27 03:15:41;;;;;;;65.52;35.88;;;;;;;11.47;87.67;98935.65;1679177;84;26421;-68
2022/09/27 03:18:07;;;;;;;57.90;33.88;;;;;;;11.50;87.75;98936.31;1681398;84;25562;-67
2022/09/27 03:20:33;;;;;;;59.40;34.48;;;;;;;11.49;87.70;98936.08;1690204;84;28218;-67
2022/09/27 03:22:59;;;;;;;69.35;34.43;;;;;;;11.51;87.71;98942.73;1689305;84;27214;-67
2022/09/27 03:25:25;;;;;;;60.40;35.10;;;;;;;11.52;87.73;98937.52;1686225;84;25656;-67
2022/09/27 03:27:51;;;;;;;73.47;38.28;;;;;;;11.53;87.73;98936.98;1691059;84;25598;-67
2022/09/27 03:30:17;;;;;;;63.63;35.28;;;;;;;11.54;87.97;98935.82;1689756;84;25500;-67
2022/09/27 03:32:45;;;;;;;67.97;34.85;;;;;;;11.53;87.84;98931.56;1691488;84;27379;-67
2022/09/27 03:35:13;;;;;;;67.35;36.23;;;;;;;11.53;87.95;98926.14;1688079;84;25660;-68
2022/09/27 03:37:40;;;;;;;70.50;35.83;;;;;;;11.53;88.09;98921.50;1688622;84;25626;-67
2022/09/27 03:40:08;;;;;;;60.55;35.40;;;;;;;11.52;88.02;98923.20;1689379;84;25679;-68
2022/09/27 03:42:34;;;;;;;69.50;34.13;;;;;;;11.53;88.20;98923.44;1680866;84;25653;-67
2022/09/27 03:45:01;;;;;;;64.87;35.35;;;;;;;11.53;88.12;98926.14;1683464;84;27420;-67
2022/09/27 03:47:28;;;;;;;63.20;35.35;;;;;;;11.52;88.18;98930.75;1683693;84;25681;-68
2022/09/27 03:49:54;;;;;;;64.10;36.05;;;;;;;11.51;88.21;98922.43;1690828;84;25784;-67
2022/09/27 03:52:20;;;;;;;61.45;36.48;;;;;;;11.53;88.17;98918.02;1686096;84;27975;-68
2022/09/27 03:54:47;;;;;;;58.45;33.75;;;;;;;11.53;88.34;98918.80;1667128;85;25661;-67
2022/09/27 03:57:14;;;;;;;62.43;35.50;;;;;;;11.55;88.41;98926.58;1683128;84;27852;-67
2022/09/27 03:59:40;;;;;;;57.13;33.58;;;;;;;11.56;88.41;98918.11;1690913;84;25545;-67
2022/09/27 04:02:07;;;;;;;61.55;34.43;;;;;;;11.55;88.46;98907.62;1688822;84;25582;-67
2022/09/27 04:04:33;;;;;;;70.78;34.53;;;;;;;11.53;88.46;98900.42;1691689;84;25776;-68
2022/09/27 04:06:59;;;;;;;61.30;34.88;;;;;;;11.50;88.63;98892.41;1690897;84;25604;-67
2022/09/27 04:09:25;;;;;;;55.90;33.63;;;;;;;11.50;88.66;98893.77;1691421;84;27529;-67
2022/09/27 04:11:51;;;;;;;58.42;35.23;;;;;;;11.54;88.82;98891.14;1689448;84;33015;-67
2022/09/27 04:14:17;;;;;;;57.85;34.08;;;;;;;11.57;88.93;98889.09;1691343;84;26022;-67
2022/09/27 04:16:43;;;;;;;58.98;34.43;;;;;;;11.59;88.94;98888.17;1691682;84;25754;-68
2022/09/27 04:19:09;;;;;;;57.08;33.73;;;;;;;11.59;88.91;98883.56;1691170;84;25463;-68
2022/09/27 04:21:36;;;;;;;54.08;33.67;;;;;;;11.61;88.63;98896.73;1691097;84;27399;-68
2022/09/27 04:24:04;;;;;;;59.45;34.67;;;;;;;11.61;88.63;98899.44;1691707;84;25717;-68
2022/09/27 04:26:30;;;;;;;56.92;34.13;;;;;;;11.61;88.78;98893.24;1690527;83;25556;-68
2022/09/27 04:28:56;;;;;;;61.53;35.23;;;;;;;11.60;88.71;98888.41;1691123;84;35331;-68
2022/09/27 04:31:23;;;;;;;62.15;34.80;;;;;;;11.62;88.91;98888.83;1690069;84;25606;-68
2022/09/27 04:33:49;;;;;;;62.73;34.83;;;;;;;11.62;88.85;98887.48;1675367;84;27448;-68
2022/09/27 04:36:25;;;;;;;62.85;30.62;;;;;;;11.62;88.93;98883.41;1691355;84;27261;-69
2022/09/27 04:38:57;;;;;;;65.22;31.30;;;;;;;11.59;88.92;98878.14;1673372;84;25627;-67
2022/09/27 04:41:26;;;;;;;54.53;31.50;;;;;;;11.59;88.82;98878.14;1673651;84;25753;-68
2022/09/27 04:43:55;;;;;;;57.08;28.85;;;;;;;11.56;88.78;98872.07;1662600;84;25623;-68
2022/09/27 04:46:22;;;;;;;57.60;29.25;;;;;;;11.56;88.64;98876.13;1663211;84;27357;-68
2022/09/27 04:48:49;;;;;;;54.85;28.55;;;;;;;11.53;88.63;98879.53;1669190;84;25427;-68
2022/09/27 04:51:17;;;;;;;57.03;28.07;;;;;;;11.50;88.72;98882.16;1694828;84;25733;-67
2022/09/27 04:53:44;;;;;;;64.35;27.60;;;;;;;11.45;88.74;98881.84;1694772;83;25683;-67
2022/09/27 04:56:12;;;;;;;56.88;24.80;;;;;;;11.44;89.02;98883.00;1683925;84;25404;-68
2022/09/27 04:58:39;;;;;;;57.73;26.10;;;;;;;11.39;89.15;98894.86;1665278;84;27964;-68
2022/09/27 05:01:08;;;;;;;60.20;27.00;;;;;;;11.33;89.17;98893.53;1675437;84;25852;-69
2022/09/27 05:03:34;;;;;;;61.08;26.12;;;;;;;11.29;89.39;98891.86;1688987;84;25716;-69
2022/09/27 05:06:01;;;;;;;66.90;26.45;;;;;;;11.23;89.70;98888.63;1693717;84;25709;-68
2022/09/27 05:08:28;;;;;;;64.60;25.32;;;;;;;11.19;89.74;98893.95;1681222;84;25568;-68
2022/09/27 05:10:54;;;;;;;69.07;25.82;;;;;;;11.15;90.12;98892.28;1689335;84;27409;-68
2022/09/27 05:13:21;;;;;;;69.17;25.25;;;;;;;11.12;90.07;98894.35;1691667;84;27180;-69
2022/09/27 05:15:47;;;;;;;79.37;25.85;;;;;;;11.09;90.42;98888.27;1692383;84;25421;-69
2022/09/27 05:18:13;;;;;;;65.55;25.23;;;;;;;11.08;90.51;98896.94;1694751;84;25538;-69
2022/09/27 05:20:41;;;;;;;62.53;25.97;;;;;;;11.05;90.62;98892.24;1693087;83;25619;-70
2022/09/27 05:23:07;;;;;;;68.33;26.42;;;;;;;11.02;90.73;98891.58;1688688;84;27384;-70
2022/09/27 05:25:34;;;;;;;57.40;24.57;;;;;;;10.99;90.76;98894.97;1688408;84;25677;-69
2022/09/27 05:28:01;;;;;;;51.83;24.50;;;;;;;10.97;90.94;98897.23;1688859;84;25605;-67
2022/09/27 05:30:28;;;;;;;55.67;22.98;;;;;;;10.96;91.58;98905.12;1691449;84;25570;-69
2022/09/27 05:32:54;;;;;;;43.98;23.57;;;;;;;10.93;91.46;98899.84;1676080;84;25749;-68
2022/09/27 05:35:21;;;;;;;42.03;21.82;;;;;;;10.92;91.70;98893.42;1688378;84;27383;-70
2022/09/27 05:37:59;;;;;;;42.33;22.65;;;;;;;10.89;91.63;98896.81;1692660;84;25454;-70
2022/09/27 05:40:28;;;;;;;49.85;23.50;;;;;;;10.87;92.06;98894.45;1684703;84;25578;-70
2022/09/27 05:42:55;;;;;;;44.70;22.17;;;;;;;10.87;91.81;98891.75;1665959;84;26438;-69
2022/09/27 05:45:24;;;;;;;48.87;23.18;;;;;;;10.91;92.12;98893.19;1665350;84;25647;-68
2022/09/27 05:47:57;;;;;;;44.50;24.75;;;;;;;10.91;92.19;98895.33;1665329;84;27427;-70
2022/09/27 05:50:25;;;;;;;43.65;23.80;;;;;;;10.91;92.17;98892.62;1692645;84;25459;-69
2022/09/27 05:52:53;;;;;;;42.83;24.07;;;;;;;10.93;92.35;98889.02;1693554;84;25612;-69
2022/09/27 05:55:20;;;;;;;40.83;21.75;;;;;;;10.96;92.36;98888.31;1694252;84;25569;-68
2022/09/27 05:58:01;;;;;;;43.60;23.20;;;;;;;11.00;92.73;98887.08;1691553;84;25549;-69
2022/09/27 06:00:29;;;;;;;45.75;20.05;;;;;;;10.99;92.29;98883.57;1694396;84;27375;-68
2022/09/27 06:02:59;;;;;;;41.23;20.80;;;;;;;11.01;92.70;98885.36;1689615;84;25653;-68
2022/09/27 06:05:28;;;;;;;48.63;23.67;;;;;;;11.03;92.65;98887.72;1680970;84;25766;-68
2022/09/27 06:08:05;;;;;;;40.85;21.15;;;;;;;11.05;92.89;98881.41;1692815;83;26167;-68
2022/09/27 06:10:33;;;;;;;46.37;22.07;;;;;;;11.09;92.82;98883.64;1693123;84;25759;-68
2022/09/27 06:13:02;;;;;;;45.15;21.77;;;;;;;11.09;92.98;98884.99;1692143;83;27406;-69
2022/09/27 06:15:30;;;;;;;51.53;24.65;;;;;;;11.12;93.23;98882.95;1690209;84;25656;-70
2022/09/27 06:17:59;;;;;;;50.17;24.98;;;;;;;11.15;93.17;98885.52;1689767;83;25665;-70
2022/09/27 06:20:25;;;;;;;54.50;25.55;;;;;;;11.16;93.24;98878.41;1692779;84;25662;-70
2022/09/27 06:22:52;;;;;;;59.95;31.50;;;;;;;11.19;93.44;98883.13;1678940;84;25692;-70
2022/09/27 06:25:19;;;;;;;64.62;31.55;;;;;;;11.20;93.37;98881.20;1689313;84;27362;-70
2022/09/27 06:27:45;;;;;;;56.73;28.07;;;;;;;11.21;93.37;98875.45;1684578;84;25634;-69
2022/09/27 06:30:12;;;;;;;49.80;24.57;;;;;;;11.27;93.56;98886.82;1691144;84;25609;-69
2022/09/27 06:32:38;;;;;;;55.05;26.00;;;;;;;11.28;93.37;98886.25;1690423;83;25793;-69
2022/09/27 06:35:05;;;;;;;51.65;26.97;;;;;;;11.30;93.51;98883.97;1681267;83;25633;-70
2022/09/27 06:37:32;;;;;;;53.20;27.67;;;;;;;11.35;93.47;98886.42;1687438;83;27390;-70
2022/09/27 06:39:59;;;;;;;49.50;25.82;;;;;;;11.37;93.32;98884.14;1684526;84;25508;-68
2022/09/27 06:42:26;;;;;;;49.63;25.80;;;;;;;11.39;93.21;98882.67;1668710;84;29704;-69
2022/09/27 06:44:53;;;;;;;52.85;27.90;;;;;;;11.43;93.58;98883.34;1675781;84;25645;-70
2022/09/27 06:47:19;;;;;;;52.70;27.42;;;;;;;11.44;93.29;98878.94;1688454;84;25672;-72
2022/09/27 06:49:45;;;;;;;54.25;27.65;;;;;;;11.53;93.69;98889.59;1697220;84;27293;-71
2022/09/27 06:52:12;;;;;;;53.73;28.23;;;;;;;11.56;93.70;98884.26;1699033;84;25710;-72
2022/09/27 06:54:38;;;;;;;53.30;28.10;;;;;;;11.61;93.34;98885.12;1692161;84;25502;-73
2022/09/27 06:57:04;;;;;;;48.48;26.17;;;;;;;11.62;93.04;98876.64;1694283;83;26248;-73
2022/09/27 07:02:15;;;;;;;50.33;25.95;;;;;;;11.69;93.09;98887.64;1692858;84;27253;-70
2022/09/27 07:04:42;;;;;;;54.45;27.13;;;;;;;11.73;92.81;98898.56;1699199;84;25629;-71
2022/09/27 07:07:09;;;;;;;45.12;24.20;;;;;;;11.73;92.49;98902.63;1699101;84;25546;-72
2022/09/27 07:09:37;;;;;;;42.75;23.70;;;;;;;11.71;92.80;98906.26;1696080;84;25623;-72
2022/09/27 07:12:04;;;;;;;47.20;24.65;;;;;;;11.73;92.67;98900.72;1698894;84;25717;-72
2022/09/27 07:14:32;;;;;;;50.50;26.55;;;;;;;11.72;92.40;98887.53;1680003;84;27312;-71
2022/09/27 07:16:58;;;;;;;55.10;25.68;;;;;;;11.74;92.73;98886.60;1699103;84;25869;-72
2022/09/27 07:19:24;;;;;;;49.30;25.37;;;;;;;11.78;92.97;98878.78;1696247;84;25751;-72
2022/09/27 07:21:51;;;;;;;57.80;27.52;;;;;;;11.85;93.25;98871.95;1684307;84;26167;-70
2022/09/27 07:24:17;;;;;;;53.63;27.62;;;;;;;11.92;93.44;98870.80;1688323;84;25413;-69
2022/09/27 07:26:43;;;;;;;53.08;26.33;;;;;;;11.94;93.11;98870.66;1696463;84;27322;-70
2022/09/27 07:29:09;;;;;;;52.08;26.68;;;;;;;11.95;92.64;98868.72;1696345;84;25699;-71
2022/09/27 07:31:36;;;;;;;51.25;25.60;;;;;;;12.02;93.12;98876.23;1697134;84;25659;-70
2022/09/27 07:34:03;;;;;;;49.00;24.95;;;;;;;12.05;92.62;98884.44;1684483;84;25730;-71
2022/09/27 07:36:29;;;;;;;48.35;25.00;;;;;;;12.09;92.75;98888.61;1699422;84;25671;-69
2022/09/27 07:38:58;;;;;;;55.60;26.30;;;;;;;12.14;92.75;98886.41;1685474;84;27381;-71
2022/09/27 07:41:25;;;;;;;46.10;23.83;;;;;;;12.21;92.88;98897.17;1673554;84;25593;-70
2022/09/27 07:43:51;;;;;;;45.20;23.38;;;;;;;12.24;92.39;98900.53;1673715;84;25679;-70
2022/09/27 07:46:17;;;;;;;45.43;23.52;;;;;;;12.21;91.71;98899.88;1669684;84;25634;-71
2022/09/27 07:48:44;;;;;;;41.10;21.87;;;;;;;12.21;91.93;98908.81;1656722;85;25773;-70
2022/09/27 07:51:10;;;;;;;42.98;20.70;;;;;;;12.22;91.61;98915.02;1652607;85;27353;-71
2022/09/27 07:53:37;;;;;;;40.00;21.42;;;;;;;12.20;91.36;98905.10;1673451;85;25676;-70
2022/09/27 07:56:04;;;;;;;43.45;22.15;;;;;;;12.18;91.42;98901.38;1681769;85;25427;-71
2022/09/27 07:58:31;;;;;;;42.93;23.02;;;;;;;12.23;91.95;98905.18;1681680;85;25662;-70
2022/09/27 08:00:59;;;;;;;43.90;21.93;;;;;;;12.22;91.71;98906.30;1680974;85;25757;-70
2022/09/27 08:03:25;;;;;;;38.50;20.70;;;;;;;12.21;91.32;98904.75;1681483;85;27224;-72
2022/09/27 08:05:52;;;;;;;39.15;20.30;;;;;;;12.22;91.60;98897.39;1679435;85;25676;-70
2022/09/27 08:08:18;;;;;;;40.25;20.17;;;;;;;12.19;91.35;98903.52;1669727;85;25638;-71
2022/09/27 08:10:45;;;;;;;38.50;20.52;;;;;;;12.23;91.88;98909.82;1680519;85;25693;-71
2022/09/27 08:13:14;;;;;;;42.53;21.23;;;;;;;12.28;92.02;98910.32;1672249;85;25551;-71
2022/09/27 08:15:40;;;;;;;41.45;19.50;;;;;;;12.30;91.68;98899.91;1681571;85;27367;-69
2022/09/27 08:18:10;;;;;;;40.58;21.35;;;;;;;12.33;91.87;98896.48;1673646;85;25566;-69
2022/09/27 08:20:36;;;;;;;38.10;21.02;;;;;;;12.37;91.83;98897.92;1666990;85;25692;-71
2022/09/27 08:23:03;;;;;;;34.18;20.10;;;;;;;12.41;91.89;98887.95;1674748;85;25746;-71
2022/09/27 08:25:30;;;;;;;42.08;22.65;;;;;;;12.55;92.24;98874.45;1676992;85;25645;-69
2022/09/27 08:27:59;;;;;;;41.55;21.10;;;;;;;12.73;93.68;98871.53;1674973;85;27315;-70
2022/09/27 08:30:28;;;;;;;33.08;20.70;;;;;;;13.07;94.55;98863.64;1675858;84;25642;-70
2022/09/27 08:32:56;;;;;;;31.17;20.25;;;;;;;13.32;92.29;98864.69;1676842;85;25675;-69
2022/09/27 08:35:23;;;;;;;32.53;20.32;;;;;;;13.43;91.97;98874.59;1671223;85;25621;-70
2022/09/27 08:37:55;;;;;;;31.40;17.80;;;;;;;13.60;91.79;98882.02;1660962;84;25728;-69
2022/09/27 08:40:33;;;;;;;28.27;17.42;;;;;;;13.69;90.41;98879.86;1672932;85;28349;-71
2022/09/27 08:43:40;;;;;;;23.80;16.60;;;;;;;13.77;89.14;98885.63;1680531;84;25795;-71
2022/09/27 08:46:27;;;;;;;25.35;16.52;;;;;;;13.81;87.09;98882.38;1667863;85;25746;-72
2022/09/27 08:49:05;;;;;;;24.52;16.20;;;;;;;13.78;85.93;98882.32;1662220;85;25615;-71
2022/09/27 08:51:34;;;;;;;21.65;14.28;;;;;;;13.78;87.20;98884.45;1659902;86;25462;-70
2022/09/27 08:54:05;;;;;;;23.00;14.93;;;;;;;13.86;86.38;98882.64;1660562;86;27373;-69
2022/09/27 08:56:32;;;;;;;21.17;13.10;;;;;;;13.96;87.02;98877.14;1637656;86;25792;-70
2022/09/27 08:59:13;;;;;;;20.30;13.03;;;;;;;14.08;87.18;98882.39;1648251;86;25837;-70
2022/09/27 09:01:40;;;;;;;19.10;13.78;;;;;;;14.04;85.65;98894.35;1646263;86;25626;-71
2022/09/27 09:04:09;;;;;;;22.35;14.80;;;;;;;13.99;85.18;98900.88;1643633;86;25679;-72
2022/09/27 09:06:44;;;;;;;17.82;13.38;;;;;;;13.92;84.87;98911.65;1650232;86;27431;-72
2022/09/27 09:09:39;;;;;;;22.65;14.25;;;;;;;13.87;84.90;98905.16;1542288;92;25726;-71
2022/09/27 09:12:46;;;;;;;20.10;13.75;;;;;;;13.87;85.30;98903.80;1539690;92;25918;-71
2022/09/27 09:15:33;;;;;;;17.57;13.08;;;;;;;13.85;84.76;98904.16;1541051;92;25818;-71
2022/09/27 09:18:12;;;;;;;20.50;13.95;;;;;;;13.88;85.12;98908.10;1520191;93;25863;-74
2022/09/27 09:21:01;;;;;;;20.75;14.15;;;;;;;13.91;85.18;98897.84;1519579;93;27468;-74
2022/09/27 09:23:45;;;;;;;18.45;13.00;;;;;;;13.96;85.54;98900.24;1531018;93;25814;-73
2022/09/27 09:26:23;;;;;;;19.48;13.83;;;;;;;14.03;85.13;98897.66;1574236;90;25750;-71
2022/09/27 09:29:06;;;;;;;19.20;12.20;;;;;;;14.12;85.25;98897.39;1552625;92;26211;-70
2022/09/27 09:32:10;;;;;;;18.82;13.10;;;;;;;14.16;84.21;98892.77;1542472;93;25888;-73
2022/09/27 09:34:41;;;;;;;19.15;12.55;;;;;;;14.13;83.68;98899.74;1542807;91;27321;-71
2022/09/27 09:37:23;;;;;;;19.17;12.70;;;;;;;14.11;83.39;98891.14;1552581;92;25602;-68
2022/09/27 09:39:55;;;;;;;17.73;12.70;;;;;;;14.08;83.09;98886.47;1542463;93;25676;-71
2022/09/27 09:42:32;;;;;;;17.65;12.07;;;;;;;14.05;82.88;98885.83;1555567;91;25801;-70
2022/09/27 09:45:16;;;;;;;22.17;12.75;;;;;;;13.99;83.05;98885.92;1492083;95;25767;-70
2022/09/27 09:48:02;;;;;;;18.27;12.30;;;;;;;13.95;82.90;98875.59;1567422;90;27446;-71
2022/09/27 09:50:37;;;;;;;17.92;13.20;;;;;;;13.96;82.90;98879.30;1590792;89;25885;-71
2022/09/27 09:53:32;;;;;;;17.75;12.75;;;;;;;13.97;82.73;98878.13;1593424;90;25725;-71
2022/09/27 09:56:06;;;;;;;16.00;11.88;;;;;;;13.92;82.72;98872.23;1593456;90;26303;-73
2022/09/27 09:58:47;;;;;;;18.15;13.22;;;;;;;13.92;83.05;98875.73;1584509;90;25710;-71
2022/09/27 10:01:28;;;;;;;16.23;12.07;;;;;;;13.92;82.93;98869.52;1591364;89;27352;-71
2022/09/27 10:03:56;;;;;;;17.98;12.95;;;;;;;13.89;82.88;98876.45;1583995;90;25718;-71
2022/09/27 10:06:24;;;;;;;16.40;12.28;;;;;;;13.90;83.23;98870.47;1591493;90;26579;-70
2022/09/27 10:08:54;;;;;;;14.78;11.38;;;;;;;13.95;83.38;98871.52;1593452;90;25715;-70
2022/09/27 10:11:27;;;;;;;18.00;12.85;;;;;;;13.97;83.48;98864.55;1588757;90;25824;-71
2022/09/27 10:13:56;;;;;;;18.73;12.55;;;;;;;14.06;84.49;98855.34;1593165;90;27337;-71
2022/09/27 10:16:25;;;;;;;17.12;11.22;;;;;;;14.25;84.93;98854.43;1593171;90;26014;-70
2022/09/27 10:18:56;;;;;;;14.43;10.58;;;;;;;14.42;84.20;98855.26;1593484;90;25822;-71
2022/09/27 10:21:29;;;;;;;16.07;10.38;;;;;;;14.55;84.28;98851.70;1594555;88;26159;-71
2022/09/27 10:24:11;;;;;;;12.82;9.60;;;;;;;14.66;83.64;98858.66;1660956;85;25437;-71
2022/09/27 10:26:42;;;;;;;12.73;9.90;;;;;;;14.78;83.14;98867.95;1671378;85;27388;-71
2022/09/27 10:29:30;;;;;;;13.45;10.38;;;;;;;14.81;82.27;98866.41;1675549;85;25723;-71
2022/09/27 10:31:59;;;;;;;11.50;9.73;;;;;;;14.86;82.34;98859.27;1672287;85;26285;-72
2022/09/27 10:34:41;;;;;;;13.53;10.72;;;;;;;14.89;81.80;98855.23;1637161;86;25750;-70
2022/09/27 10:37:21;;;;;;;13.00;9.88;;;;;;;14.89;80.92;98855.23;1667998;85;25272;-69
2022/09/27 10:39:50;;;;;;;11.80;9.20;;;;;;;14.93;81.18;98855.27;1662085;85;27308;-71
2022/09/27 10:42:37;;;;;;;;;;;;;;;14.99;80.31;98847.56;1682566;85;25261;-71
2022/09/27 10:45:28;;;;;;;9.33;7.83;;;;;;;14.90;79.98;98837.75;1643957;87;25823;-70
2022/09/27 10:47:55;;;;;;;12.50;9.75;;;;;;;14.95;80.28;98835.28;1683212;84;25647;-71
2022/09/27 10:50:25;;;;;;;12.60;9.45;;;;;;;15.07;80.96;98826.83;1691239;84;25669;-74
2022/09/27 10:53:17;;;;;;;11.90;9.18;;;;;;;15.23;80.07;98826.58;1690544;84;27381;-73
2022/09/27 10:55:50;;;;;;;13.13;10.55;;;;;;;15.33;79.15;98828.42;1668290;85;25572;-73
2022/09/27 10:58:33;;;;;;;12.90;8.68;;;;;;;15.42;78.63;98818.75;1674696;84;25667;-72
2022/09/27 11:01:06;;;;;;;12.45;9.33;;;;;;;15.44;77.72;98821.91;1670462;84;25619;-71
2022/09/27 11:06:29;;;;;;;12.07;10.88;;;;;;;15.41;77.23;98822.66;1563833;91;27365;-71
2022/09/27 11:09:10;;;;;;;11.88;9.48;;;;;;;15.38;76.54;98829.44;1563882;90;25986;-72
2022/09/27 11:11:37;;;;;;;13.58;11.38;;;;;;;15.34;76.27;98828.61;1499523;94;25918;-72
2022/09/27 11:14:07;;;;;;;10.60;9.50;;;;;;;15.31;75.58;98832.88;1507428;93;25623;-72
2022/09/27 11:16:54;;;;;;;12.07;8.35;;;;;;;15.18;75.61;98832.95;1507434;93;25791;-73
2022/09/27 11:19:47;;;;;;;11.18;8.13;;;;;;;15.06;76.05;98829.34;1506795;93;27365;-73
2022/09/27 11:22:37;;;;;;;8.78;7.28;;;;;;;15.04;76.59;98824.08;1507038;93;25841;-72
2022/09/27 11:25:52;;;;;;;9.58;7.45;;;;;;;15.03;77.00;98816.47;1488435;96;25907;-72
2022/09/27 11:28:53;;;;;;;9.28;7.90;;;;;;;15.12;76.71;98816.95;1514566;93;25754;-73
2022/09/27 11:31:52;;;;;;;12.15;8.75;;;;;;;15.17;76.28;98804.14;1538394;92;25777;-76
2022/09/27 11:34:54;;;;;;;12.70;9.07;;;;;;;15.26;77.08;98799.18;1555587;90;27349;-73
2022/09/27 11:37:38;;;;;;;13.70;8.95;;;;;;;15.49;76.23;98804.41;1531396;93;26086;-74
2022/09/27 11:40:30;;;;;;;10.25;8.28;;;;;;;15.58;75.99;98793.97;1537118;92;25759;-76
2022/09/27 11:43:32;;;;;;;9.80;7.83;;;;;;;15.79;75.27;98791.22;1569849;91;25818;-77
2022/09/27 11:46:32;;;;;;;9.85;7.72;;;;;;;15.87;74.50;98788.14;1566219;91;25471;-78
2022/09/27 11:49:15;;;;;;;11.50;8.83;;;;;;;15.94;74.38;98780.59;1572513;90;27340;-76
2022/09/27 11:52:09;;;;;;;11.78;8.98;;;;;;;15.96;74.45;98777.48;1579136;90;25828;-76